Terminal Aerodrome Forecast
Issued by NWS Houston/Galveston TX

Home | Current Version | Previous Version | Text Only | Print | Product List | Glossary On
Versions: 1 2 3 4 5 6 7 8 9 10 11 12 13 14 15 16 17 18 19 20 21 22 23 24 25 26 27 28 29 30
000
FTUS44 KHGX 270521
TAFHOU
TAF
KHOU 270521Z 2706/2806 13010KT P6SM VCSH BKN012 OVC020
     FM270900 15007KT P6SM OVC013
     FM271500 16009KT P6SM SCT015 BKN025
     FM271900 17011KT P6SM SCT025 BKN035
     FM280400 16009KT P6SM OVC015=

USA.gov is the U.S. government's official web portal to all federal, state and local government web resources and services.